Esler Regional Airport
KESF : rendu visible

Aérodrome :











RETROUVEZ-NOUS SUR...

 
LOGIN :

S'inscrire | Disclaimer

   EN    FR    IT 

 









Légende :    VFR   VFR Marginal   IFR   IFR Intensif   IFR Très Intensif
Visi : 
Plafond : 
>= 8 km
>= 3000ft
5 à 8 km
1000 à 3000 ft
1500m à 5 km
500 à 1000 ft
800 à 1500m
200 à 500 ft
< 800m
< 200 ft
Symboles :   Orages  Brouillard  Fortes neiges  Fortes précipitations  Vent > 20 kt






- Altitude de l'aérodrome : 112 ft


KESF - Esler Regional

DERNIER METAR :
  • 240453Z AUTO 00000KT 5SM BR CLR 05/04 A3018 RMK AO2 SLP219 T00500039

METARs EXPIRÉS :
  • 240353Z AUTO 00000KT 5SM BR CLR 06/05 A3018 RMK AO2 SLP221 T00610050
  • 240253Z AUTO 00000KT 8SM CLR 07/06 A3020 RMK AO2 SLP225 T00670056 58003

TAF N/A
FIR KZHU / Amérique du Nord



MET'MAP, la Météo Aéronautique d'un coup d'oeil ! - Copyright ORBIFLY Décembre 2007 - Disclaimer

ORBIFLY MET'MAP TEAM :

Programmation & Développement : Alexandra Zaïnal
Sur une idée originale de : Baudouin d'Aumeries
Assistance à la programmation : Marc-Olivier Méhu
Soutien technique & logistique : Manuel Goepfert

Contact : metmap@orbifly.com




SOURCES & CREDITS :

   NOAA       Earth
Advisory